| time (UTC) | temp F | wind direction | speed knots | gust knots | rain 1hr in | rain 24hr in | rain mn in | humidity % | barometer mb |
| 20260505101554 | 44 | 0 | 0.0 | 0.0 | 0.00 | 0.00 | 0.00 | 75 | 1014.9 |
| 20260505100625 | 45 | 0 | 0.0 | 0.0 | 0.00 | 0.00 | 0.00 | 74 | 1014.9 |
| 20260505095604 | 44 | 0 | 0.0 | 0.0 | 0.00 | 0.00 | 0.00 | 74 | 1014.8 |
| 20260505094614 | 45 | 0 | 0.0 | 0.0 | 0.00 | 0.00 | 0.00 | 72 | 1014.7 |
| 20260505093554 | 45 | 0 | 0.0 | 0.0 | 0.00 | 0.00 | 0.00 | 71 | 1014.7 |
| 20260505092624 | 45 | 0 | 0.0 | 0.0 | 0.00 | 0.00 | 0.00 | 73 | 1014.7 |
| 20260505091604 | 46 | 0 | 0.0 | 0.0 | 0.00 | 0.00 | 0.00 | 74 | 1014.6 |
| 20260505090554 | 46 | 0 | 0.0 | 0.0 | 0.00 | 0.00 | 0.00 | 72 | 1014.6 |
| 20260505085644 | 46 | 0 | 0.0 | 0.0 | 0.00 | 0.00 | 0.00 | 73 | 1014.6 |
| 20260505084543 | 46 | 0 | 0.0 | 0.0 | 0.00 | 0.00 | 0.00 | 68 | 1014.5 |
| 20260505083613 | 47 | 0 | 0.0 | 0.0 | 0.00 | 0.00 | 0.00 | 69 | 1014.4 |
| 20260505082552 | 47 | 0 | 0.0 | 0.0 | 0.00 | 0.00 | 0.00 | 73 | 1014.4 |
| 20260505081603 | 47 | 0 | 0.0 | 0.0 | 0.00 | 0.00 | 0.00 | 70 | 1014.3 |
| 20260505080522 | 48 | 0 | 0.0 | 0.0 | 0.00 | 0.00 | 0.00 | 70 | 1014.3 |
| 20260505075552 | 48 | 0 | 0.0 | 0.0 | 0.00 | 0.00 | 0.00 | 70 | 1014.2 |
| 20260505074622 | 48 | 0 | 0.0 | 0.0 | 0.00 | 0.00 | 0.00 | 71 | 1014.1 |
| 20260505073542 | 49 | 0 | 0.0 | 0.0 | 0.00 | 0.00 | 0.00 | 70 | 1014.0 |
| 20260505072612 | 49 | 0 | 0.0 | 0.0 | 0.00 | 0.00 | 0.00 | 68 | 1013.9 |
| 20260505071531 | 49 | 0 | 0.0 | 0.0 | 0.00 | 0.00 | 0.00 | 69 | 1013.8 |
| 20260505070602 | 50 | 0 | 0.0 | 0.0 | 0.00 | 0.00 | 0.00 | 68 | 1013.8 |
| 20260505065521 | 50 | 0 | 0.0 | 0.0 | 0.00 | 0.00 | 0.00 | 68 | 1013.7 |
| 20260505064612 | 50 | 306 | 0.0 | 1.7 | 0.00 | 0.00 | 0.00 | 68 | 1013.6 |
| 20260505063622 | 51 | 0 | 0.0 | 0.0 | 0.00 | 0.00 | 0.00 | 67 | 1013.5 |
| 20260505062542 | 51 | 0 | 0.0 | 0.0 | 0.00 | 0.00 | 0.00 | 68 | 1013.5 |
| 20260505061612 | 51 | 0 | 0.0 | 0.0 | 0.00 | 0.00 | 0.00 | 62 | 1013.4 |
| 20260505060531 | 51 | 0 | 0.0 | 0.0 | 0.00 | 0.00 | 0.00 | 63 | 1013.3 |
| 20260505055602 | 52 | 0 | 0.0 | 0.0 | 0.00 | 0.00 | 0.00 | 64 | 1013.3 |
| 20260505054522 | 52 | 0 | 0.0 | 0.0 | 0.00 | 0.00 | 0.00 | 62 | 1013.2 |
| 20260505053552 | 53 | 0 | 0.0 | 0.0 | 0.00 | 0.00 | 0.00 | 60 | 1013.1 |
| 20260505052642 | 53 | 0 | 0.0 | 0.0 | 0.00 | 0.00 | 0.00 | 57 | 1013.0 |
| 20260505051542 | 54 | 0 | 0.0 | 0.0 | 0.00 | 0.00 | 0.00 | 54 | 1012.9 |
| 20260505050612 | 54 | 307 | 0.0 | 2.6 | 0.00 | 0.00 | 0.00 | 61 | 1012.8 |
| 20260505041621 | 59 | 0 | 0.0 | 0.0 | 0.00 | 0.00 | 0.00 | 43 | 1012.1 |
| 20260505040540 | 59 | 0 | 0.0 | 0.0 | 0.00 | 0.00 | 0.00 | 44 | 1011.9 |
| 20260505035611 | 59 | 0 | 0.0 | 1.7 | 0.00 | 0.00 | 0.00 | 44 | 1011.7 |
| 20260505034527 | 60 | 312 | 0.0 | 2.6 | 0.00 | 0.00 | 0.00 | 45 | 1011.6 |
| 20260505033556 | 59 | 0 | 0.0 | 0.0 | 0.00 | 0.00 | 0.00 | 47 | 1011.5 |
| 20260505032516 | 59 | 292 | 0.0 | 1.7 | 0.00 | 0.00 | 0.00 | 49 | 1011.3 |
| 20260505031546 | 59 | 0 | 0.0 | 0.0 | 0.00 | 0.00 | 0.00 | 49 | 1011.2 |
| 20260505030616 | 60 | 0 | 0.0 | 0.0 | 0.00 | 0.00 | 0.00 | 55 | 1011.2 |
| 20260505025535 | 61 | 0 | 0.0 | 0.0 | 0.00 | 0.00 | 0.00 | 50 | 1011.1 |
| 20260505024606 | 61 | 0 | 0.0 | 0.0 | 0.00 | 0.00 | 0.00 | 50 | 1011.1 |
| 20260505023546 | 62 | 0 | 0.0 | 0.0 | 0.00 | 0.00 | 0.00 | 46 | 1011.2 |
| 20260505022636 | 63 | 0 | 0.0 | 0.0 | 0.00 | 0.00 | 0.00 | 47 | 1011.2 |
| 20260505021516 | 66 | 0 | 0.0 | 0.0 | 0.00 | 0.00 | 0.00 | 42 | 1011.1 |
| 20260505020547 | 70 | 270 | 0.0 | 1.7 | 0.00 | 0.00 | 0.00 | 32 | 1011.1 |
| 20260505015617 | 71 | 282 | 0.0 | 3.5 | 0.00 | 0.00 | 0.00 | 27 | 1011.1 |
| 20260505014616 | 72 | 277 | 0.9 | 3.5 | 0.00 | 0.00 | 0.00 | 26 | 1011.1 |
| 20260505013606 | 72 | 277 | 0.0 | 2.6 | 0.00 | 0.00 | 0.00 | 26 | 1011.1 |
| 20260505012525 | 73 | 292 | 0.0 | 3.5 | 0.00 | 0.00 | 0.00 | 26 | 1011.1 |
| 20260505011555 | 73 | 349 | 0.0 | 4.3 | 0.00 | 0.00 | 0.00 | 26 | 1011.2 |
| 20260505010625 | 73 | 291 | 0.9 | 4.3 | 0.00 | 0.00 | 0.00 | 26 | 1011.2 |
| 20260505005544 | 73 | 311 | 0.9 | 4.3 | 0.00 | 0.00 | 0.00 | 26 | 1011.2 |
| 20260505004614 | 73 | 311 | 0.0 | 3.5 | 0.00 | 0.00 | 0.00 | 25 | 1011.2 |
| 20260505003534 | 73 | 327 | 0.0 | 2.6 | 0.00 | 0.00 | 0.00 | 26 | 1011.2 |
| 20260505002605 | 74 | 285 | 0.0 | 3.5 | 0.00 | 0.00 | 0.00 | 25 | 1011.3 |
| 20260505001524 | 74 | 318 | 0.0 | 4.3 | 0.00 | 0.00 | 0.00 | 25 | 1011.3 |
| 20260505000555 | 74 | 309 | 0.0 | 4.3 | 0.00 | 0.00 | 0.00 | 25 | 1011.4 |
| 20260504235515 | 73 | 345 | 0.0 | 3.5 | 0.00 | 0.00 | 0.00 | 26 | 1011.5 |
| 20260504234546 | 74 | 309 | 0.9 | 6.1 | 0.00 | 0.00 | 0.00 | 25 | 1011.6 |
| 20260504233617 | 74 | 298 | 0.9 | 4.3 | 0.00 | 0.00 | 0.00 | 26 | 1011.6 |
| 20260504232536 | 75 | 283 | 0.9 | 6.1 | 0.00 | 0.00 | 0.00 | 25 | 1011.7 |
| 20260504231607 | 74 | 120 | 0.0 | 3.5 | 0.00 | 0.00 | 0.00 | 26 | 1011.7 |
| 20260504230546 | 74 | 354 | 0.9 | 5.2 | 0.00 | 0.00 | 0.00 | 26 | 1011.8 |
| 20260504225557 | 74 | 307 | 0.9 | 5.2 | 0.00 | 0.00 | 0.00 | 26 | 1011.9 |
| 20260504224516 | 74 | 278 | 0.0 | 3.5 | 0.00 | 0.00 | 0.00 | 26 | 1011.9 |
| 20260504223546 | 74 | 306 | 0.9 | 7.0 | 0.00 | 0.00 | 0.00 | 26 | 1012.0 |
| 20260504222617 | 74 | 341 | 0.0 | 3.5 | 0.00 | 0.00 | 0.00 | 26 | 1012.1 |
| 20260504221536 | 74 | 295 | 0.9 | 4.3 | 0.00 | 0.00 | 0.00 | 26 | 1012.1 |
| 20260504220606 | 75 | 94 | 0.0 | 3.5 | 0.00 | 0.00 | 0.00 | 25 | 1012.1 |
| 20260504215525 | 75 | 10 | 0.9 | 5.2 | 0.00 | 0.00 | 0.00 | 26 | 1012.2 |
| 20260504214556 | 75 | 343 | 0.9 | 4.3 | 0.00 | 0.00 | 0.00 | 26 | 1012.3 |
| 20260504213515 | 75 | 317 | 0.9 | 4.3 | 0.00 | 0.00 | 0.00 | 26 | 1012.3 |
| 20260504212605 | 74 | 296 | 0.9 | 7.0 | 0.00 | 0.00 | 0.00 | 27 | 1012.4 |
| 20260504211615 | 75 | 328 | 0.9 | 3.5 | 0.00 | 0.00 | 0.00 | 26 | 1012.5 |
| 20260504210535 | 75 | 290 | 0.0 | 4.3 | 0.00 | 0.00 | 0.00 | 27 | 1012.5 |
| 20260504205625 | 75 | 273 | 0.0 | 4.3 | 0.00 | 0.00 | 0.00 | 27 | 1012.6 |
| 20260504204524 | 74 | 324 | 0.0 | 3.5 | 0.00 | 0.00 | 0.00 | 27 | 1012.7 |
| 20260504203555 | 74 | 323 | 0.9 | 3.5 | 0.00 | 0.00 | 0.00 | 27 | 1012.7 |
| 20260504202645 | 74 | 320 | 0.0 | 3.5 | 0.00 | 0.00 | 0.00 | 27 | 1012.8 |
| 20260504201545 | 73 | 328 | 0.0 | 5.2 | 0.00 | 0.00 | 0.00 | 27 | 1012.8 |
| 20260504200615 | 73 | 313 | 0.0 | 6.1 | 0.00 | 0.00 | 0.00 | 28 | 1012.8 |
| 20260504195535 | 72 | 314 | 0.9 | 4.3 | 0.00 | 0.00 | 0.00 | 29 | 1012.9 |
| 20260504194605 | 72 | 2 | 0.0 | 6.1 | 0.00 | 0.00 | 0.00 | 30 | 1013.0 |
| 20260504193524 | 71 | 348 | 0.0 | 2.6 | 0.00 | 0.00 | 0.00 | 30 | 1013.1 |
| 20260504192555 | 71 | 345 | 0.0 | 3.5 | 0.00 | 0.00 | 0.00 | 32 | 1013.2 |
| 20260504191625 | 70 | 15 | 0.0 | 5.2 | 0.00 | 0.00 | 0.00 | 32 | 1013.3 |
| 20260504190544 | 70 | 318 | 0.0 | 2.6 | 0.00 | 0.00 | 0.00 | 32 | 1013.4 |
| 20260504185615 | 69 | 310 | 0.0 | 3.5 | 0.00 | 0.00 | 0.00 | 34 | 1013.4 |
| 20260504184534 | 68 | 317 | 0.0 | 4.3 | 0.00 | 0.00 | 0.00 | 36 | 1013.5 |
| 20260504183605 | 67 | 338 | 0.0 | 4.3 | 0.00 | 0.00 | 0.00 | 36 | 1013.6 |
| 20260504182524 | 66 | 317 | 0.9 | 5.2 | 0.00 | 0.00 | 0.00 | 38 | 1013.6 |
| 20260504181555 | 66 | 347 | 0.0 | 2.6 | 0.00 | 0.00 | 0.00 | 40 | 1013.7 |
| 20260504180625 | 64 | 295 | 0.0 | 3.5 | 0.00 | 0.00 | 0.00 | 41 | 1013.8 |
| 20260504175545 | 64 | 351 | 0.0 | 2.6 | 0.00 | 0.00 | 0.00 | 42 | 1013.8 |
| 20260504174615 | 64 | 23 | 0.0 | 4.3 | 0.00 | 0.00 | 0.00 | 42 | 1013.9 |
| 20260504173534 | 63 | 304 | 0.0 | 4.3 | 0.00 | 0.00 | 0.00 | 42 | 1013.9 |
| 20260504172604 | 62 | 293 | 0.0 | 4.3 | 0.00 | 0.00 | 0.00 | 43 | 1014.0 |
| 20260504171523 | 61 | 357 | 0.0 | 2.6 | 0.00 | 0.00 | 0.00 | 44 | 1014.0 |
| 20260504170553 | 61 | 289 | 0.0 | 4.3 | 0.00 | 0.00 | 0.00 | 45 | 1014.0 |
| 20260504150604 | 53 | 0 | 0.0 | 0.0 | 0.00 | 0.00 | 0.00 | 59 | 1014.6 |
| 20260504140533 | 50 | 296 | 0.0 | 3.5 | 0.00 | 0.00 | 0.00 | 63 | 1014.5 |
| 20260504130633 | 47 | 307 | 0.0 | 2.6 | 0.00 | 0.00 | 0.00 | 67 | 1014.1 |
| 20260504110621 | 47 | 292 | 0.0 | 1.7 | 0.00 | 0.00 | 0.00 | 69 | 1013.8 |